createdAt,value
2022-09-06T00:03:09.595Z,101306.08
2022-09-06T00:08:12.227Z,101303.75
2022-09-06T00:13:14.830Z,101303.41
2022-09-06T00:18:17.481Z,101303.08
2022-09-06T00:23:20.286Z,101302.35
2022-09-06T00:28:22.966Z,101301.89
2022-09-06T00:33:25.589Z,101301.42
2022-09-06T00:38:29.202Z,101304.55
2022-09-06T00:43:31.748Z,101303.48
2022-09-06T00:48:35.476Z,101302.13
2022-09-06T00:53:38.078Z,101304.52
2022-09-06T00:58:41.348Z,101302.56
2022-09-06T01:03:44.138Z,101301.98
2022-09-06T01:08:55.946Z,101296.58
2022-09-06T01:14:16.678Z,101297.43
2022-09-06T01:19:31.022Z,101299.85
2022-09-06T01:25:06.835Z,101300.30
2022-09-06T01:30:11.263Z,101301.31
2022-09-06T01:35:36.897Z,101301.50
2022-09-06T01:40:39.535Z,101297.30
2022-09-06T01:46:00.762Z,101293.60
2022-09-06T01:51:06.398Z,101296.98
2022-09-06T01:56:09.282Z,101294.70
2022-09-06T02:01:22.330Z,101291.28
2022-09-06T02:06:29.941Z,101287.38
2022-09-06T02:11:35.927Z,101288.04
2022-09-06T02:16:40.739Z,101292.69
2022-09-06T02:21:45.505Z,101295.27
2022-09-06T02:26:49.116Z,101298.15
2022-09-06T02:32:07.180Z,101297.02
2022-09-06T02:37:11.111Z,101296.58
2022-09-06T02:42:15.697Z,101295.60
2022-09-06T02:47:18.594Z,101294.77
2022-09-06T02:52:21.171Z,101298.57
2022-09-06T02:57:23.837Z,101294.09
2022-09-06T03:02:26.784Z,101291.46
2022-09-06T03:07:29.557Z,101294.55
2022-09-06T03:12:32.190Z,101289.69
2022-09-06T03:17:34.781Z,101290.30
2022-09-06T03:22:38.106Z,101283.17
2022-09-06T03:27:40.970Z,101284.80
2022-09-06T03:32:43.621Z,101288.98
2022-09-06T03:37:46.233Z,101286.05
2022-09-06T03:42:49.410Z,101284.55
2022-09-06T03:47:52.007Z,101285.17
2022-09-06T03:52:54.634Z,101285.55
2022-09-06T03:57:57.218Z,101283.55
2022-09-06T04:03:01.809Z,101279.66
2022-09-06T04:08:05.982Z,101276.06
2022-09-06T04:13:08.586Z,101281.81
2022-09-06T04:18:11.482Z,101284.22
2022-09-06T04:23:14.040Z,101286.90
2022-09-06T04:28:18.504Z,101284.82
2022-09-06T04:33:21.945Z,101282.73
2022-09-06T04:38:24.980Z,101282.45
2022-09-06T04:43:27.643Z,101280.68
2022-09-06T04:48:30.471Z,101282.33
2022-09-06T04:53:33.450Z,101279.15
2022-09-06T04:58:36.384Z,101285.02
2022-09-06T05:03:38.977Z,101287.23
2022-09-06T05:08:42.061Z,101291.86
2022-09-06T05:13:45.786Z,101289.29
2022-09-06T05:18:48.408Z,101289.05
2022-09-06T05:23:53.437Z,101289.70
2022-09-06T05:28:59.415Z,101283.36
2022-09-06T05:34:02.451Z,101287.89
2022-09-06T05:39:05.200Z,101290.34
2022-09-06T05:44:07.781Z,101289.65
2022-09-06T05:49:10.623Z,101285.33
2022-09-06T05:54:13.172Z,101287.46
2022-09-06T05:59:15.878Z,101292.59
2022-09-06T06:04:18.822Z,101294.09
2022-09-06T06:09:21.473Z,101297.13
2022-09-06T06:14:24.558Z,101297.52
2022-09-06T06:19:27.518Z,101292.36
2022-09-06T06:24:30.391Z,101294.92
2022-09-06T06:29:33.012Z,101291.84
2022-09-06T06:34:35.593Z,101297.04
2022-09-06T06:39:38.751Z,101299.20
2022-09-06T06:44:41.561Z,101299.01
2022-09-06T06:49:44.227Z,101298.14
2022-09-06T06:54:46.865Z,101301.90
2022-09-06T06:59:49.553Z,101300.98
2022-09-06T07:04:52.371Z,101302.04
2022-09-06T07:15:18.074Z,101305.48
2022-09-06T07:20:20.781Z,101299.51
2022-09-06T07:25:23.573Z,101299.68
2022-09-06T07:30:26.238Z,101301.08
2022-09-06T07:35:28.918Z,101300.05
2022-09-06T07:40:31.613Z,101298.62
2022-09-06T07:45:34.627Z,101298.62
2022-09-06T07:50:54.642Z,101292.33
2022-09-06T07:56:02.446Z,101296.65
2022-09-06T08:01:14.310Z,101293.64
2022-09-06T08:06:17.106Z,101290.98
2022-09-06T08:11:20.178Z,101284.65
2022-09-06T08:16:24.124Z,101279.37
2022-09-06T08:21:32.432Z,101274.45
2022-09-06T08:26:36.468Z,101271.34
2022-09-06T08:31:41.047Z,101272.21
2022-09-06T08:36:45.559Z,101273.12
2022-09-06T08:42:07.082Z,101268.79
2022-09-06T08:47:10.822Z,101260.34
2022-09-06T08:52:22.574Z,101260.23
2022-09-06T08:57:40.305Z,101255.35
2022-09-06T09:03:06.324Z,101251.60
2022-09-06T09:08:24.405Z,101245.23
2022-09-06T09:13:40.179Z,101240.05
2022-09-06T09:18:46.681Z,101240.80
2022-09-06T09:23:54.305Z,101224.80
2022-09-06T09:29:05.957Z,101220.26
2022-09-06T09:34:27.880Z,101216.36
2022-09-06T09:39:38.167Z,101212.17
2022-09-06T09:44:44.953Z,101209.30
2022-09-06T09:49:47.526Z,101200.33
2022-09-06T09:54:54.174Z,101196.70
2022-09-06T09:59:58.912Z,101191.96
2022-09-06T10:05:13.958Z,101196.42
2022-09-06T10:10:23.849Z,101186.04
2022-09-06T10:15:34.091Z,101178.33
2022-09-06T10:20:39.693Z,101175.73
2022-09-06T10:25:48.961Z,101167.71
2022-09-06T10:31:16.124Z,101165.66
2022-09-06T10:36:28.582Z,101160.44
2022-09-06T10:41:34.705Z,101160.46
2022-09-06T10:46:38.168Z,101156.58
2022-09-06T10:51:40.897Z,101149.42
2022-09-06T10:56:56.101Z,101149.93
2022-09-06T11:02:01.855Z,101148.18
2022-09-06T11:07:07.352Z,101140.37
2022-09-06T11:12:09.974Z,101138.56
2022-09-06T11:17:12.589Z,101133.20
2022-09-06T11:22:34.193Z,101128.39
2022-09-06T11:27:39.579Z,101114.15
2022-09-06T11:32:48.841Z,101114.63
2022-09-06T11:38:11.662Z,101109.89
2022-09-06T11:43:34.290Z,101103.67
2022-09-06T11:48:49.865Z,101091.74
2022-09-06T11:53:58.666Z,101082.83
2022-09-06T11:59:10.013Z,101076.36
2022-09-06T12:04:12.647Z,101067.39
2022-09-06T12:09:29.148Z,101064.87
2022-09-06T12:14:34.377Z,101057.59
2022-09-06T12:19:59.705Z,101045.78
2022-09-06T12:25:34.502Z,101048.96
2022-09-06T12:30:44.734Z,101046.52
2022-09-06T12:40:59.270Z,101037.29
2022-09-06T12:46:05.321Z,101025.14
2022-09-06T12:51:19.665Z,101018.63
2022-09-06T12:56:24.597Z,101014.25
2022-09-06T13:01:31.271Z,101006.02
2022-09-06T13:06:37.519Z,100995.89
2022-09-06T13:11:43.610Z,100987.26
2022-09-06T13:16:48.538Z,100984.22
2022-09-06T13:21:52.077Z,100983.50
2022-09-06T13:26:54.941Z,100986.92
2022-09-06T13:31:58.849Z,100982.09
2022-09-06T13:37:03.882Z,100984.14
2022-09-06T13:42:08.204Z,100987.23
2022-09-06T13:47:10.848Z,100983.34
2022-09-06T13:52:14.221Z,100981.45
2022-09-06T13:57:21.065Z,100976.09
2022-09-06T14:02:26.665Z,100974.99
2022-09-06T14:07:29.259Z,100972.77
2022-09-06T14:12:33.718Z,100966.68
2022-09-06T14:17:36.724Z,100958.88
2022-09-06T14:22:39.447Z,100957.19
2022-09-06T14:27:42.025Z,100951.67
2022-09-06T14:32:44.648Z,100946.73
2022-09-06T14:37:48.054Z,100942.43
2022-09-06T14:42:50.839Z,100939.52
2022-09-06T14:47:53.596Z,100932.09
2022-09-06T14:52:56.417Z,100928.44
2022-09-06T14:57:59.288Z,100927.66
2022-09-06T15:03:02.551Z,100923.04
2022-09-06T15:08:05.666Z,100916.78
2022-09-06T15:13:08.553Z,100909.23
2022-09-06T15:18:11.628Z,100907.82
2022-09-06T15:23:24.797Z,100901.08
2022-09-06T15:28:27.956Z,100899.41
2022-09-06T15:33:31.408Z,100896.89
2022-09-06T15:38:35.120Z,100891.56
2022-09-06T15:43:41.251Z,100883.98
2022-09-06T15:48:45.396Z,100872.69
2022-09-06T15:53:48.061Z,100872.28
2022-09-06T15:58:50.685Z,100871.86
2022-09-06T16:03:54.822Z,100866.02
2022-09-06T16:08:58.772Z,100863.43
2022-09-06T16:14:02.073Z,100861.14
2022-09-06T16:19:04.785Z,100858.79
2022-09-06T16:24:08.539Z,100855.31
2022-09-06T16:29:12.094Z,100848.61
2022-09-06T16:34:14.803Z,100849.91
2022-09-06T16:39:17.364Z,100850.00
2022-09-06T16:44:20.080Z,100850.19
2022-09-06T16:49:22.795Z,100843.61
2022-09-06T16:54:25.505Z,100838.70
2022-09-06T16:59:28.691Z,100843.48
2022-09-06T17:04:31.291Z,100839.97
2022-09-06T17:09:35.649Z,100845.02
2022-09-06T17:14:38.347Z,100849.23
2022-09-06T17:19:41.546Z,100844.80
2022-09-06T17:24:44.219Z,100846.77
2022-09-06T17:29:46.885Z,100854.63
2022-09-06T17:34:49.519Z,100859.48
2022-09-06T17:39:52.131Z,100860.03
2022-09-06T17:44:54.736Z,100862.01
2022-09-06T17:49:57.342Z,100864.20
2022-09-06T17:54:59.953Z,100864.10
2022-09-06T18:00:04.352Z,100864.52
2022-09-06T18:05:07.703Z,100867.65
2022-09-06T18:10:10.785Z,100875.88
2022-09-06T18:15:13.407Z,100875.40
2022-09-06T18:20:16.025Z,100879.45
2022-09-06T18:25:18.634Z,100883.61
2022-09-06T18:30:21.224Z,100877.78
2022-09-06T18:35:24.071Z,100881.80
2022-09-06T18:40:26.659Z,100884.15
2022-09-06T18:45:31.974Z,100887.98
2022-09-06T18:50:36.881Z,100893.77
2022-09-06T18:55:42.808Z,100897.88
2022-09-06T19:00:45.540Z,100895.14
2022-09-06T19:05:48.221Z,100893.16
2022-09-06T19:10:58.742Z,100896.48
2022-09-06T19:16:01.709Z,100895.48
2022-09-06T19:21:06.318Z,100893.15
2022-09-06T19:26:10.914Z,100897.63
2022-09-06T19:31:15.870Z,100900.58
2022-09-06T19:36:19.291Z,100899.89
2022-09-06T19:41:22.273Z,100896.73
2022-09-06T19:46:25.871Z,100889.73
2022-09-06T19:51:28.761Z,100888.02
2022-09-06T19:56:34.332Z,100890.33
2022-09-06T20:01:38.182Z,100890.38
2022-09-06T20:06:40.975Z,100890.17
2022-09-06T20:11:44.079Z,100886.92
2022-09-06T20:16:46.688Z,100882.12
2022-09-06T20:21:49.343Z,100883.25
2022-09-06T20:26:53.049Z,100887.30
2022-09-06T20:31:55.849Z,100888.70
2022-09-06T20:36:58.875Z,100891.13
2022-09-06T20:42:02.195Z,100886.09
2022-09-06T20:47:05.973Z,100886.98
2022-09-06T20:52:08.702Z,100886.38
2022-09-06T20:57:11.334Z,100878.91
2022-09-06T21:02:14.146Z,100875.23
2022-09-06T21:07:17.714Z,100876.26
2022-09-06T21:12:21.101Z,100869.89
2022-09-06T21:17:23.803Z,100869.09
2022-09-06T21:22:26.460Z,100874.42
2022-09-06T21:27:29.174Z,100871.27
2022-09-06T21:32:31.835Z,100869.23
2022-09-06T21:37:34.454Z,100860.73
2022-09-06T21:42:37.080Z,100865.22
2022-09-06T21:47:39.682Z,100862.55
2022-09-06T21:52:42.324Z,100862.11
2022-09-06T21:57:44.985Z,100857.80
2022-09-06T22:02:47.940Z,100855.25
2022-09-06T22:07:50.538Z,100853.95
2022-09-06T22:12:53.208Z,100858.73
2022-09-06T22:17:55.818Z,100857.09
2022-09-06T22:22:58.438Z,100854.33
2022-09-06T22:28:01.635Z,100854.00
2022-09-06T22:33:04.269Z,100849.11
2022-09-06T22:38:07.935Z,100849.29
2022-09-06T22:43:10.546Z,100849.10
2022-09-06T22:48:13.731Z,100853.19
2022-09-06T22:53:16.600Z,100858.52
2022-09-06T22:58:19.628Z,100852.20
2022-09-06T23:03:22.619Z,100847.14
2022-09-06T23:08:25.272Z,100843.21
2022-09-06T23:13:27.934Z,100839.31
2022-09-06T23:18:30.758Z,100838.73
2022-09-06T23:23:34.537Z,100831.82
2022-09-06T23:28:37.546Z,100827.70
2022-09-06T23:33:41.923Z,100820.48
2022-09-06T23:38:44.844Z,100815.02
2022-09-06T23:43:47.469Z,100812.27
2022-09-06T23:48:50.111Z,100814.37
2022-09-06T23:53:52.890Z,100818.46
2022-09-06T23:58:55.994Z,100813.05
